Terminal Aerodrome Forecast
Issued by NWS

Home | Current Version | Previous Version | Text Only | Print | Product List | Glossary On
Versions: 1 2 3 4 5 6 7 8 9 10 11 12
000
FTUS42 TJSJ 300500 RRA
TAFJPS
TAF
TJPS 300542Z 3006/3106 00000KT P6SM FEW030
     FM301430 14009KT P6SM FEW030 SCT060
     FM302200 09006KT P6SM FEW030
      AMD NOT SKED 3011/3103=

USA.gov is the U.S. government's official web portal to all federal, state and local government web resources and services.